sensor_id;sensor_type;location;lat;lon;timestamp;P1;durP1;ratioP1;P2;durP2;ratioP2
11344;SDS011;5727;42.600;23.028;2023-04-15T00:01:05;6.67;;;6.00;;
11344;SDS011;5727;42.600;23.028;2023-04-15T00:03:33;8.60;;;6.43;;
11344;SDS011;5727;42.600;23.028;2023-04-15T00:06:00;8.13;;;5.40;;
11344;SDS011;5727;42.600;23.028;2023-04-15T00:08:27;6.30;;;5.00;;
11344;SDS011;5727;42.600;23.028;2023-04-15T00:10:55;6.33;;;4.80;;
11344;SDS011;5727;42.600;23.028;2023-04-15T00:13:23;6.33;;;5.30;;
11344;SDS011;5727;42.600;23.028;2023-04-15T00:15:50;5.47;;;4.63;;
11344;SDS011;5727;42.600;23.028;2023-04-15T00:18:16;4.90;;;4.40;;
11344;SDS011;5727;42.600;23.028;2023-04-15T00:20:44;6.27;;;4.53;;
11344;SDS011;5727;42.600;23.028;2023-04-15T00:23:11;7.70;;;5.83;;
11344;SDS011;5727;42.600;23.028;2023-04-15T00:25:38;10.60;;;6.40;;
11344;SDS011;5727;42.600;23.028;2023-04-15T00:28:05;10.23;;;7.30;;
11344;SDS011;5727;42.600;23.028;2023-04-15T00:30:32;25.73;;;17.30;;
11344;SDS011;5727;42.600;23.028;2023-04-15T00:32:59;19.53;;;12.40;;
11344;SDS011;5727;42.600;23.028;2023-04-15T00:35:27;11.33;;;8.00;;
11344;SDS011;5727;42.600;23.028;2023-04-15T00:37:58;8.77;;;6.47;;
11344;SDS011;5727;42.600;23.028;2023-04-15T00:40:24;9.90;;;6.40;;
11344;SDS011;5727;42.600;23.028;2023-04-15T00:42:52;6.43;;;5.67;;
11344;SDS011;5727;42.600;23.028;2023-04-15T00:45:19;5.43;;;4.50;;
11344;SDS011;5727;42.600;23.028;2023-04-15T00:47:45;8.53;;;5.90;;
11344;SDS011;5727;42.600;23.028;2023-04-15T00:50:12;9.17;;;6.60;;
11344;SDS011;5727;42.600;23.028;2023-04-15T00:52:39;6.70;;;5.17;;
11344;SDS011;5727;42.600;23.028;2023-04-15T00:55:08;7.70;;;5.77;;
11344;SDS011;5727;42.600;23.028;2023-04-15T00:57:35;7.13;;;3.90;;
11344;SDS011;5727;42.600;23.028;2023-04-15T01:00:02;8.77;;;3.83;;
11344;SDS011;5727;42.600;23.028;2023-04-15T01:02:33;6.80;;;4.03;;
11344;SDS011;5727;42.600;23.028;2023-04-15T01:05:00;4.63;;;3.90;;
11344;SDS011;5727;42.600;23.028;2023-04-15T01:07:28;5.90;;;4.47;;
11344;SDS011;5727;42.600;23.028;2023-04-15T01:09:55;13.27;;;8.07;;
11344;SDS011;5727;42.600;23.028;2023-04-15T01:12:23;16.13;;;10.03;;
11344;SDS011;5727;42.600;23.028;2023-04-15T01:14:52;11.00;;;8.63;;
11344;SDS011;5727;42.600;23.028;2023-04-15T01:17:19;14.70;;;9.17;;
11344;SDS011;5727;42.600;23.028;2023-04-15T01:19:46;11.17;;;9.00;;
11344;SDS011;5727;42.600;23.028;2023-04-15T01:22:12;11.43;;;8.30;;
11344;SDS011;5727;42.600;23.028;2023-04-15T01:24:40;12.83;;;9.10;;
11344;SDS011;5727;42.600;23.028;2023-04-15T01:27:11;11.67;;;8.47;;
11344;SDS011;5727;42.600;23.028;2023-04-15T01:29:37;13.40;;;8.37;;
11344;SDS011;5727;42.600;23.028;2023-04-15T01:32:04;9.77;;;8.30;;
11344;SDS011;5727;42.600;23.028;2023-04-15T01:34:31;12.63;;;9.00;;
11344;SDS011;5727;42.600;23.028;2023-04-15T01:36:58;7.00;;;6.30;;
11344;SDS011;5727;42.600;23.028;2023-04-15T01:39:25;5.90;;;5.23;;
11344;SDS011;5727;42.600;23.028;2023-04-15T01:41:51;6.70;;;5.80;;
11344;SDS011;5727;42.600;23.028;2023-04-15T01:44:19;8.20;;;5.57;;
11344;SDS011;5727;42.600;23.028;2023-04-15T01:46:46;7.13;;;5.87;;
11344;SDS011;5727;42.600;23.028;2023-04-15T01:49:13;7.23;;;5.80;;
11344;SDS011;5727;42.600;23.028;2023-04-15T01:51:40;9.73;;;5.43;;
11344;SDS011;5727;42.600;23.028;2023-04-15T01:54:06;7.30;;;6.10;;
11344;SDS011;5727;42.600;23.028;2023-04-15T01:56:33;7.67;;;5.00;;
11344;SDS011;5727;42.600;23.028;2023-04-15T01:59:00;5.57;;;5.07;;
11344;SDS011;5727;42.600;23.028;2023-04-15T02:01:29;5.93;;;5.43;;
11344;SDS011;5727;42.600;23.028;2023-04-15T02:03:55;6.23;;;5.63;;
11344;SDS011;5727;42.600;23.028;2023-04-15T02:06:22;8.37;;;6.13;;
11344;SDS011;5727;42.600;23.028;2023-04-15T02:08:49;6.83;;;6.13;;
11344;SDS011;5727;42.600;23.028;2023-04-15T02:11:16;5.37;;;4.60;;
11344;SDS011;5727;42.600;23.028;2023-04-15T02:13:43;8.30;;;4.80;;
11344;SDS011;5727;42.600;23.028;2023-04-15T02:16:16;5.37;;;4.67;;
11344;SDS011;5727;42.600;23.028;2023-04-15T02:18:45;4.90;;;4.47;;
11344;SDS011;5727;42.600;23.028;2023-04-15T02:21:12;5.37;;;4.87;;
11344;SDS011;5727;42.600;23.028;2023-04-15T02:23:39;5.77;;;4.93;;
11344;SDS011;5727;42.600;23.028;2023-04-15T02:26:06;5.43;;;4.93;;
11344;SDS011;5727;42.600;23.028;2023-04-15T02:28:32;7.17;;;5.47;;
11344;SDS011;5727;42.600;23.028;2023-04-15T02:30:59;7.77;;;5.10;;
11344;SDS011;5727;42.600;23.028;2023-04-15T02:33:26;7.70;;;5.63;;
11344;SDS011;5727;42.600;23.028;2023-04-15T02:35:54;5.57;;;5.07;;
11344;SDS011;5727;42.600;23.028;2023-04-15T02:38:21;8.43;;;5.80;;
11344;SDS011;5727;42.600;23.028;2023-04-15T02:40:48;5.90;;;5.30;;
11344;SDS011;5727;42.600;23.028;2023-04-15T02:43:15;6.87;;;5.53;;
11344;SDS011;5727;42.600;23.028;2023-04-15T02:45:42;7.23;;;5.90;;
11344;SDS011;5727;42.600;23.028;2023-04-15T02:48:09;6.27;;;5.63;;
11344;SDS011;5727;42.600;23.028;2023-04-15T02:50:35;6.77;;;6.10;;
11344;SDS011;5727;42.600;23.028;2023-04-15T02:53:08;9.03;;;7.60;;
11344;SDS011;5727;42.600;23.028;2023-04-15T02:55:35;7.80;;;6.60;;
11344;SDS011;5727;42.600;23.028;2023-04-15T02:58:01;7.87;;;5.70;;
11344;SDS011;5727;42.600;23.028;2023-04-15T03:00:28;6.63;;;5.97;;
11344;SDS011;5727;42.600;23.028;2023-04-15T03:02:56;9.53;;;7.90;;
11344;SDS011;5727;42.600;23.028;2023-04-15T03:05:24;10.37;;;7.90;;
11344;SDS011;5727;42.600;23.028;2023-04-15T03:07:51;6.87;;;5.87;;
11344;SDS011;5727;42.600;23.028;2023-04-15T03:10:19;5.53;;;5.03;;
11344;SDS011;5727;42.600;23.028;2023-04-15T03:12:46;7.47;;;5.47;;
11344;SDS011;5727;42.600;23.028;2023-04-15T03:15:13;5.10;;;4.60;;
11344;SDS011;5727;42.600;23.028;2023-04-15T03:17:40;5.70;;;4.90;;
11344;SDS011;5727;42.600;23.028;2023-04-15T03:20:07;6.47;;;5.20;;
11344;SDS011;5727;42.600;23.028;2023-04-15T03:22:34;5.90;;;5.33;;
11344;SDS011;5727;42.600;23.028;2023-04-15T03:25:01;6.70;;;5.40;;
11344;SDS011;5727;42.600;23.028;2023-04-15T03:27:29;6.23;;;5.23;;
11344;SDS011;5727;42.600;23.028;2023-04-15T03:29:56;5.60;;;5.10;;
11344;SDS011;5727;42.600;23.028;2023-04-15T03:32:22;6.43;;;4.90;;
11344;SDS011;5727;42.600;23.028;2023-04-15T03:34:49;5.40;;;4.87;;
11344;SDS011;5727;42.600;23.028;2023-04-15T03:37:16;5.87;;;5.30;;
11344;SDS011;5727;42.600;23.028;2023-04-15T03:39:42;6.53;;;5.70;;
11344;SDS011;5727;42.600;23.028;2023-04-15T03:42:10;5.47;;;4.90;;
11344;SDS011;5727;42.600;23.028;2023-04-15T03:44:38;5.97;;;5.20;;
11344;SDS011;5727;42.600;23.028;2023-04-15T03:47:04;6.53;;;4.80;;
11344;SDS011;5727;42.600;23.028;2023-04-15T03:49:31;5.50;;;5.07;;
11344;SDS011;5727;42.600;23.028;2023-04-15T03:51:58;7.53;;;5.70;;
11344;SDS011;5727;42.600;23.028;2023-04-15T03:54:25;7.17;;;5.53;;
11344;SDS011;5727;42.600;23.028;2023-04-15T03:56:52;7.73;;;6.47;;
11344;SDS011;5727;42.600;23.028;2023-04-15T03:59:18;12.57;;;8.27;;
11344;SDS011;5727;42.600;23.028;2023-04-15T04:01:46;14.47;;;8.80;;
11344;SDS011;5727;42.600;23.028;2023-04-15T04:04:13;18.57;;;11.50;;
11344;SDS011;5727;42.600;23.028;2023-04-15T04:06:40;12.07;;;7.80;;
11344;SDS011;5727;42.600;23.028;2023-04-15T04:09:07;11.60;;;8.13;;
11344;SDS011;5727;42.600;23.028;2023-04-15T04:11:33;18.00;;;10.97;;
11344;SDS011;5727;42.600;23.028;2023-04-15T04:14:01;15.23;;;10.70;;
11344;SDS011;5727;42.600;23.028;2023-04-15T04:16:28;14.27;;;10.53;;
11344;SDS011;5727;42.600;23.028;2023-04-15T04:18:56;9.43;;;7.70;;
11344;SDS011;5727;42.600;23.028;2023-04-15T04:21:23;6.63;;;5.93;;
11344;SDS011;5727;42.600;23.028;2023-04-15T04:23:50;8.27;;;6.50;;
11344;SDS011;5727;42.600;23.028;2023-04-15T04:26:17;10.83;;;7.93;;
11344;SDS011;5727;42.600;23.028;2023-04-15T04:28:44;9.73;;;8.57;;
11344;SDS011;5727;42.600;23.028;2023-04-15T04:31:10;12.93;;;9.97;;
11344;SDS011;5727;42.600;23.028;2023-04-15T04:33:37;14.33;;;11.17;;
11344;SDS011;5727;42.600;23.028;2023-04-15T04:36:06;11.73;;;9.97;;
11344;SDS011;5727;42.600;23.028;2023-04-15T04:38:33;14.90;;;11.60;;
11344;SDS011;5727;42.600;23.028;2023-04-15T04:40:59;17.33;;;13.00;;
11344;SDS011;5727;42.600;23.028;2023-04-15T04:43:26;18.97;;;14.23;;
11344;SDS011;5727;42.600;23.028;2023-04-15T04:45:53;16.13;;;13.60;;
11344;SDS011;5727;42.600;23.028;2023-04-15T04:48:19;21.00;;;14.37;;
11344;SDS011;5727;42.600;23.028;2023-04-15T04:50:47;16.70;;;13.60;;
11344;SDS011;5727;42.600;23.028;2023-04-15T04:53:15;14.77;;;10.50;;
11344;SDS011;5727;42.600;23.028;2023-04-15T04:55:42;10.83;;;9.00;;
11344;SDS011;5727;42.600;23.028;2023-04-15T04:58:08;13.33;;;9.03;;
11344;SDS011;5727;42.600;23.028;2023-04-15T05:00:35;10.60;;;8.47;;
11344;SDS011;5727;42.600;23.028;2023-04-15T05:03:03;9.27;;;7.70;;
11344;SDS011;5727;42.600;23.028;2023-04-15T05:05:29;9.27;;;7.80;;
11344;SDS011;5727;42.600;23.028;2023-04-15T05:07:56;12.13;;;9.20;;
11344;SDS011;5727;42.600;23.028;2023-04-15T05:10:24;13.67;;;9.90;;
11344;SDS011;5727;42.600;23.028;2023-04-15T05:12:51;12.57;;;10.30;;
11344;SDS011;5727;42.600;23.028;2023-04-15T05:15:18;16.27;;;9.57;;
11344;SDS011;5727;42.600;23.028;2023-04-15T05:17:45;12.10;;;8.63;;
11344;SDS011;5727;42.600;23.028;2023-04-15T05:20:12;12.30;;;9.27;;
11344;SDS011;5727;42.600;23.028;2023-04-15T05:22:38;11.93;;;8.80;;
11344;SDS011;5727;42.600;23.028;2023-04-15T05:25:05;11.43;;;8.70;;
11344;SDS011;5727;42.600;23.028;2023-04-15T05:27:34;12.33;;;9.10;;
11344;SDS011;5727;42.600;23.028;2023-04-15T05:30:01;11.30;;;9.37;;
11344;SDS011;5727;42.600;23.028;2023-04-15T05:32:28;11.30;;;8.27;;
11344;SDS011;5727;42.600;23.028;2023-04-15T05:34:55;9.57;;;8.53;;
11344;SDS011;5727;42.600;23.028;2023-04-15T05:37:22;11.20;;;7.73;;
11344;SDS011;5727;42.600;23.028;2023-04-15T05:39:48;8.87;;;7.97;;
11344;SDS011;5727;42.600;23.028;2023-04-15T05:42:16;8.90;;;8.00;;
11344;SDS011;5727;42.600;23.028;2023-04-15T05:44:44;9.33;;;7.13;;
11344;SDS011;5727;42.600;23.028;2023-04-15T05:47:10;10.20;;;7.37;;
11344;SDS011;5727;42.600;23.028;2023-04-15T05:49:37;9.17;;;7.10;;
11344;SDS011;5727;42.600;23.028;2023-04-15T05:52:04;9.37;;;7.23;;
11344;SDS011;5727;42.600;23.028;2023-04-15T05:54:31;8.37;;;6.93;;
11344;SDS011;5727;42.600;23.028;2023-04-15T05:56:57;11.17;;;6.93;;
11344;SDS011;5727;42.600;23.028;2023-04-15T05:59:25;10.93;;;7.40;;
11344;SDS011;5727;42.600;23.028;2023-04-15T06:01:53;9.20;;;7.03;;
11344;SDS011;5727;42.600;23.028;2023-04-15T06:04:20;10.10;;;7.23;;
11344;SDS011;5727;42.600;23.028;2023-04-15T06:06:47;9.50;;;7.10;;
11344;SDS011;5727;42.600;23.028;2023-04-15T06:09:13;10.60;;;7.10;;
11344;SDS011;5727;42.600;23.028;2023-04-15T06:11:40;9.20;;;7.53;;
11344;SDS011;5727;42.600;23.028;2023-04-15T06:14:07;8.40;;;6.90;;
11344;SDS011;5727;42.600;23.028;2023-04-15T06:16:34;9.90;;;7.10;;
11344;SDS011;5727;42.600;23.028;2023-04-15T06:19:03;8.57;;;7.57;;
11344;SDS011;5727;42.600;23.028;2023-04-15T06:21:29;7.83;;;6.53;;
11344;SDS011;5727;42.600;23.028;2023-04-15T06:23:57;10.67;;;7.63;;
11344;SDS011;5727;42.600;23.028;2023-04-15T06:26:24;8.43;;;6.10;;
11344;SDS011;5727;42.600;23.028;2023-04-15T06:28:51;7.00;;;5.73;;
11344;SDS011;5727;42.600;23.028;2023-04-15T06:31:18;9.00;;;6.37;;
11344;SDS011;5727;42.600;23.028;2023-04-15T06:33:44;8.73;;;6.07;;
11344;SDS011;5727;42.600;23.028;2023-04-15T06:36:12;7.20;;;5.73;;
11344;SDS011;5727;42.600;23.028;2023-04-15T06:38:39;6.73;;;5.93;;
11344;SDS011;5727;42.600;23.028;2023-04-15T06:41:06;5.80;;;5.20;;
11344;SDS011;5727;42.600;23.028;2023-04-15T06:43:33;6.53;;;4.43;;
11344;SDS011;5727;42.600;23.028;2023-04-15T06:46:00;5.67;;;3.70;;
11344;SDS011;5727;42.600;23.028;2023-04-15T06:48:27;6.63;;;4.30;;
11344;SDS011;5727;42.600;23.028;2023-04-15T06:50:54;4.73;;;2.83;;
11344;SDS011;5727;42.600;23.028;2023-04-15T06:53:23;3.40;;;2.50;;
11344;SDS011;5727;42.600;23.028;2023-04-15T06:55:50;2.70;;;2.43;;
11344;SDS011;5727;42.600;23.028;2023-04-15T06:58:17;3.80;;;2.53;;
11344;SDS011;5727;42.600;23.028;2023-04-15T07:00:44;3.27;;;2.67;;
11344;SDS011;5727;42.600;23.028;2023-04-15T07:03:11;2.50;;;2.30;;
11344;SDS011;5727;42.600;23.028;2023-04-15T07:05:37;4.10;;;2.20;;
11344;SDS011;5727;42.600;23.028;2023-04-15T07:08:05;3.00;;;2.27;;
11344;SDS011;5727;42.600;23.028;2023-04-15T07:10:33;2.43;;;2.23;;
11344;SDS011;5727;42.600;23.028;2023-04-15T07:13:00;4.27;;;2.70;;
11344;SDS011;5727;42.600;23.028;2023-04-15T07:15:27;4.70;;;2.67;;
11344;SDS011;5727;42.600;23.028;2023-04-15T07:17:53;2.60;;;2.40;;
11344;SDS011;5727;42.600;23.028;2023-04-15T07:20:20;2.50;;;2.30;;
11344;SDS011;5727;42.600;23.028;2023-04-15T07:22:47;4.17;;;2.90;;
11344;SDS011;5727;42.600;23.028;2023-04-15T07:25:13;2.23;;;1.93;;
11344;SDS011;5727;42.600;23.028;2023-04-15T07:27:43;2.20;;;2.00;;
11344;SDS011;5727;42.600;23.028;2023-04-15T07:30:10;2.37;;;1.87;;
11344;SDS011;5727;42.600;23.028;2023-04-15T07:32:37;2.57;;;1.90;;
11344;SDS011;5727;42.600;23.028;2023-04-15T07:35:04;3.23;;;1.77;;
11344;SDS011;5727;42.600;23.028;2023-04-15T07:37:31;1.90;;;1.60;;
11344;SDS011;5727;42.600;23.028;2023-04-15T07:39:58;2.33;;;1.70;;
11344;SDS011;5727;42.600;23.028;2023-04-15T07:42:25;2.70;;;1.80;;
11344;SDS011;5727;42.600;23.028;2023-04-15T07:44:56;3.17;;;1.73;;
11344;SDS011;5727;42.600;23.028;2023-04-15T07:47:23;2.33;;;1.93;;
11344;SDS011;5727;42.600;23.028;2023-04-15T07:49:51;3.70;;;1.70;;
11344;SDS011;5727;42.600;23.028;2023-04-15T07:52:17;1.87;;;1.50;;
11344;SDS011;5727;42.600;23.028;2023-04-15T07:54:44;2.57;;;2.10;;
11344;SDS011;5727;42.600;23.028;2023-04-15T07:57:11;2.43;;;1.77;;
11344;SDS011;5727;42.600;23.028;2023-04-15T07:59:37;4.47;;;1.87;;
11344;SDS011;5727;42.600;23.028;2023-04-15T08:02:05;3.13;;;1.30;;
11344;SDS011;5727;42.600;23.028;2023-04-15T08:04:32;3.47;;;1.73;;
11344;SDS011;5727;42.600;23.028;2023-04-15T08:06:59;1.70;;;1.60;;
11344;SDS011;5727;42.600;23.028;2023-04-15T08:09:26;1.87;;;1.60;;
11344;SDS011;5727;42.600;23.028;2023-04-15T08:11:52;2.47;;;1.73;;
11344;SDS011;5727;42.600;23.028;2023-04-15T08:14:20;3.17;;;2.07;;
11344;SDS011;5727;42.600;23.028;2023-04-15T08:16:47;1.80;;;1.40;;
11344;SDS011;5727;42.600;23.028;2023-04-15T08:19:15;1.83;;;1.47;;
11344;SDS011;5727;42.600;23.028;2023-04-15T08:21:42;1.87;;;1.63;;
11344;SDS011;5727;42.600;23.028;2023-04-15T08:24:09;2.37;;;1.70;;
11344;SDS011;5727;42.600;23.028;2023-04-15T08:26:35;4.17;;;1.33;;
11344;SDS011;5727;42.600;23.028;2023-04-15T08:29:02;1.70;;;1.40;;
11344;SDS011;5727;42.600;23.028;2023-04-15T08:31:29;2.87;;;1.90;;
11344;SDS011;5727;42.600;23.028;2023-04-15T08:33:55;3.50;;;1.60;;
11344;SDS011;5727;42.600;23.028;2023-04-15T08:36:24;2.00;;;1.20;;
11344;SDS011;5727;42.600;23.028;2023-04-15T08:38:52;4.53;;;1.63;;
11344;SDS011;5727;42.600;23.028;2023-04-15T08:41:20;2.13;;;1.60;;
11344;SDS011;5727;42.600;23.028;2023-04-15T08:43:51;3.47;;;1.60;;
11344;SDS011;5727;42.600;23.028;2023-04-15T08:46:20;2.40;;;1.80;;
11344;SDS011;5727;42.600;23.028;2023-04-15T08:48:47;2.53;;;1.40;;
11344;SDS011;5727;42.600;23.028;2023-04-15T08:51:15;5.23;;;1.30;;
11344;SDS011;5727;42.600;23.028;2023-04-15T08:53:43;2.60;;;1.50;;
11344;SDS011;5727;42.600;23.028;2023-04-15T08:56:12;1.53;;;1.10;;
11344;SDS011;5727;42.600;23.028;2023-04-15T08:58:40;1.77;;;1.30;;
11344;SDS011;5727;42.600;23.028;2023-04-15T09:01:08;1.77;;;1.07;;
11344;SDS011;5727;42.600;23.028;2023-04-15T09:03:36;1.30;;;1.20;;
11344;SDS011;5727;42.600;23.028;2023-04-15T09:06:04;1.93;;;1.37;;
11344;SDS011;5727;42.600;23.028;2023-04-15T09:08:31;3.03;;;1.20;;
11344;SDS011;5727;42.600;23.028;2023-04-15T09:11:01;2.70;;;1.33;;
11344;SDS011;5727;42.600;23.028;2023-04-15T09:13:28;1.10;;;1.00;;
11344;SDS011;5727;42.600;23.028;2023-04-15T09:15:55;0.80;;;0.80;;
11344;SDS011;5727;42.600;23.028;2023-04-15T09:18:28;1.77;;;0.80;;
11344;SDS011;5727;42.600;23.028;2023-04-15T09:21:02;2.23;;;0.93;;
11344;SDS011;5727;42.600;23.028;2023-04-15T09:23:31;2.20;;;0.90;;
11344;SDS011;5727;42.600;23.028;2023-04-15T09:25:58;1.83;;;1.00;;
11344;SDS011;5727;42.600;23.028;2023-04-15T09:28:26;1.20;;;0.90;;
11344;SDS011;5727;42.600;23.028;2023-04-15T09:30:56;2.00;;;0.80;;
11344;SDS011;5727;42.600;23.028;2023-04-15T09:33:23;1.20;;;0.80;;
11344;SDS011;5727;42.600;23.028;2023-04-15T09:35:58;1.20;;;0.90;;
11344;SDS011;5727;42.600;23.028;2023-04-15T09:38:26;1.47;;;0.80;;
11344;SDS011;5727;42.600;23.028;2023-04-15T09:40:53;1.30;;;0.80;;
11344;SDS011;5727;42.600;23.028;2023-04-15T09:43:20;2.13;;;0.70;;
11344;SDS011;5727;42.600;23.028;2023-04-15T09:45:50;1.90;;;0.70;;
11344;SDS011;5727;42.600;23.028;2023-04-15T09:48:18;1.03;;;0.83;;
11344;SDS011;5727;42.600;23.028;2023-04-15T09:50:46;1.53;;;0.77;;
11344;SDS011;5727;42.600;23.028;2023-04-15T09:53:17;3.80;;;0.80;;
11344;SDS011;5727;42.600;23.028;2023-04-15T09:55:45;2.83;;;0.80;;
11344;SDS011;5727;42.600;23.028;2023-04-15T09:58:18;2.00;;;0.80;;
11344;SDS011;5727;42.600;23.028;2023-04-15T10:00:49;1.27;;;1.03;;
11344;SDS011;5727;42.600;23.028;2023-04-15T10:03:18;2.43;;;1.00;;
11344;SDS011;5727;42.600;23.028;2023-04-15T10:05:46;2.30;;;0.83;;
11344;SDS011;5727;42.600;23.028;2023-04-15T10:08:15;1.30;;;0.90;;
11344;SDS011;5727;42.600;23.028;2023-04-15T10:10:44;1.17;;;0.90;;
11344;SDS011;5727;42.600;23.028;2023-04-15T10:13:12;1.63;;;0.77;;
11344;SDS011;5727;42.600;23.028;2023-04-15T10:15:40;1.00;;;0.60;;
11344;SDS011;5727;42.600;23.028;2023-04-15T10:18:11;1.73;;;0.70;;
11344;SDS011;5727;42.600;23.028;2023-04-15T10:20:41;1.13;;;0.77;;
11344;SDS011;5727;42.600;23.028;2023-04-15T10:23:08;2.00;;;1.17;;
11344;SDS011;5727;42.600;23.028;2023-04-15T10:25:35;1.97;;;1.20;;
11344;SDS011;5727;42.600;23.028;2023-04-15T10:28:02;0.77;;;0.77;;
11344;SDS011;5727;42.600;23.028;2023-04-15T10:30:31;2.63;;;1.20;;
11344;SDS011;5727;42.600;23.028;2023-04-15T10:32:59;2.23;;;0.90;;
11344;SDS011;5727;42.600;23.028;2023-04-15T10:35:28;1.43;;;0.60;;
11344;SDS011;5727;42.600;23.028;2023-04-15T10:37:56;2.20;;;0.97;;
11344;SDS011;5727;42.600;23.028;2023-04-15T10:40:23;1.10;;;0.70;;
11344;SDS011;5727;42.600;23.028;2023-04-15T10:42:52;0.87;;;0.70;;
11344;SDS011;5727;42.600;23.028;2023-04-15T10:45:20;0.97;;;0.80;;
11344;SDS011;5727;42.600;23.028;2023-04-15T10:47:50;2.07;;;1.17;;
11344;SDS011;5727;42.600;23.028;2023-04-15T10:50:18;1.80;;;1.03;;
11344;SDS011;5727;42.600;23.028;2023-04-15T10:52:49;3.17;;;1.27;;
11344;SDS011;5727;42.600;23.028;2023-04-15T10:55:18;3.10;;;1.73;;
11344;SDS011;5727;42.600;23.028;2023-04-15T10:57:50;5.90;;;2.20;;
11344;SDS011;5727;42.600;23.028;2023-04-15T11:00:19;6.63;;;3.60;;
11344;SDS011;5727;42.600;23.028;2023-04-15T11:02:52;3.17;;;2.17;;
11344;SDS011;5727;42.600;23.028;2023-04-15T11:05:21;5.63;;;2.33;;
11344;SDS011;5727;42.600;23.028;2023-04-15T11:07:53;7.13;;;2.90;;
11344;SDS011;5727;42.600;23.028;2023-04-15T11:13:24;0.83;;;0.60;;
11344;SDS011;5727;42.600;23.028;2023-04-15T11:15:57;0.70;;;0.70;;
11344;SDS011;5727;42.600;23.028;2023-04-15T11:18:26;1.17;;;0.60;;
11344;SDS011;5727;42.600;23.028;2023-04-15T11:20:58;1.20;;;0.70;;
11344;SDS011;5727;42.600;23.028;2023-04-15T11:23:28;0.53;;;0.53;;
11344;SDS011;5727;42.600;23.028;2023-04-15T11:25:57;0.83;;;0.60;;
11344;SDS011;5727;42.600;23.028;2023-04-15T11:28:25;1.10;;;0.70;;
11344;SDS011;5727;42.600;23.028;2023-04-15T11:30:54;1.27;;;0.50;;
11344;SDS011;5727;42.600;23.028;2023-04-15T11:33:22;1.97;;;0.70;;
11344;SDS011;5727;42.600;23.028;2023-04-15T11:35:50;1.80;;;0.90;;
11344;SDS011;5727;42.600;23.028;2023-04-15T11:38:18;2.10;;;0.63;;
11344;SDS011;5727;42.600;23.028;2023-04-15T11:40:48;2.27;;;0.80;;
11344;SDS011;5727;42.600;23.028;2023-04-15T11:43:16;0.40;;;0.40;;
11344;SDS011;5727;42.600;23.028;2023-04-15T11:45:49;0.73;;;0.40;;
11344;SDS011;5727;42.600;23.028;2023-04-15T11:48:17;3.03;;;0.50;;
11344;SDS011;5727;42.600;23.028;2023-04-15T11:50:45;1.47;;;0.60;;
11344;SDS011;5727;42.600;23.028;2023-04-15T11:53:12;0.90;;;0.60;;
11344;SDS011;5727;42.600;23.028;2023-04-15T11:55:42;0.60;;;0.50;;
11344;SDS011;5727;42.600;23.028;2023-04-15T11:58:12;1.20;;;0.50;;
11344;SDS011;5727;42.600;23.028;2023-04-15T12:00:46;1.20;;;0.60;;
11344;SDS011;5727;42.600;23.028;2023-04-15T12:03:17;1.00;;;0.60;;
11344;SDS011;5727;42.600;23.028;2023-04-15T12:06:07;0.80;;;0.50;;
11344;SDS011;5727;42.600;23.028;2023-04-15T12:11:35;0.97;;;0.50;;
11344;SDS011;5727;42.600;23.028;2023-04-15T12:14:21;1.07;;;0.47;;
11344;SDS011;5727;42.600;23.028;2023-04-15T12:16:51;2.60;;;0.50;;
11344;SDS011;5727;42.600;23.028;2023-04-15T12:19:23;0.90;;;0.40;;
11344;SDS011;5727;42.600;23.028;2023-04-15T12:21:52;0.63;;;0.40;;
11344;SDS011;5727;42.600;23.028;2023-04-15T12:24:22;2.60;;;0.60;;
11344;SDS011;5727;42.600;23.028;2023-04-15T12:26:50;1.60;;;0.50;;
11344;SDS011;5727;42.600;23.028;2023-04-15T12:29:18;1.67;;;0.60;;
11344;SDS011;5727;42.600;23.028;2023-04-15T12:31:48;2.13;;;0.40;;
11344;SDS011;5727;42.600;23.028;2023-04-15T12:34:16;1.50;;;0.40;;
11344;SDS011;5727;42.600;23.028;2023-04-15T12:36:44;1.60;;;0.33;;
11344;SDS011;5727;42.600;23.028;2023-04-15T12:39:11;1.00;;;0.30;;
11344;SDS011;5727;42.600;23.028;2023-04-15T12:41:38;2.10;;;0.40;;
11344;SDS011;5727;42.600;23.028;2023-04-15T12:44:06;0.80;;;0.30;;
11344;SDS011;5727;42.600;23.028;2023-04-15T12:46:33;3.20;;;0.40;;
11344;SDS011;5727;42.600;23.028;2023-04-15T12:49:01;1.93;;;0.50;;
11344;SDS011;5727;42.600;23.028;2023-04-15T12:51:28;1.30;;;0.30;;
11344;SDS011;5727;42.600;23.028;2023-04-15T12:53:55;0.77;;;0.30;;
11344;SDS011;5727;42.600;23.028;2023-04-15T12:56:22;1.33;;;0.40;;
11344;SDS011;5727;42.600;23.028;2023-04-15T12:58:49;1.00;;;0.30;;
11344;SDS011;5727;42.600;23.028;2023-04-15T13:01:16;1.33;;;0.30;;
11344;SDS011;5727;42.600;23.028;2023-04-15T13:03:43;1.53;;;0.40;;
11344;SDS011;5727;42.600;23.028;2023-04-15T13:06:11;2.63;;;0.30;;
11344;SDS011;5727;42.600;23.028;2023-04-15T13:08:38;0.93;;;0.30;;
11344;SDS011;5727;42.600;23.028;2023-04-15T13:11:04;1.90;;;0.30;;
11344;SDS011;5727;42.600;23.028;2023-04-15T13:13:31;1.50;;;0.30;;
11344;SDS011;5727;42.600;23.028;2023-04-15T13:15:58;1.40;;;0.30;;
11344;SDS011;5727;42.600;23.028;2023-04-15T13:18:25;1.00;;;0.40;;
11344;SDS011;5727;42.600;23.028;2023-04-15T13:20:51;0.63;;;0.30;;
11344;SDS011;5727;42.600;23.028;2023-04-15T13:23:21;1.27;;;0.40;;
11344;SDS011;5727;42.600;23.028;2023-04-15T13:25:48;0.87;;;0.40;;
11344;SDS011;5727;42.600;23.028;2023-04-15T13:28:14;2.20;;;0.20;;
11344;SDS011;5727;42.600;23.028;2023-04-15T13:30:41;1.57;;;0.30;;
11344;SDS011;5727;42.600;23.028;2023-04-15T13:33:08;0.57;;;0.20;;
11344;SDS011;5727;42.600;23.028;2023-04-15T13:35:35;0.90;;;0.20;;
11344;SDS011;5727;42.600;23.028;2023-04-15T13:38:02;1.87;;;0.30;;
11344;SDS011;5727;42.600;23.028;2023-04-15T13:40:30;1.23;;;0.30;;
11344;SDS011;5727;42.600;23.028;2023-04-15T13:42:56;0.53;;;0.20;;
11344;SDS011;5727;42.600;23.028;2023-04-15T13:45:23;0.60;;;0.30;;
11344;SDS011;5727;42.600;23.028;2023-04-15T13:47:51;0.47;;;0.30;;
11344;SDS011;5727;42.600;23.028;2023-04-15T13:50:18;0.80;;;0.30;;
11344;SDS011;5727;42.600;23.028;2023-04-15T13:52:45;0.83;;;0.30;;
11344;SDS011;5727;42.600;23.028;2023-04-15T13:55:12;0.80;;;0.30;;
11344;SDS011;5727;42.600;23.028;2023-04-15T13:57:40;2.10;;;0.40;;
11344;SDS011;5727;42.600;23.028;2023-04-15T14:00:07;0.80;;;0.47;;
11344;SDS011;5727;42.600;23.028;2023-04-15T14:02:35;1.10;;;0.40;;
11344;SDS011;5727;42.600;23.028;2023-04-15T14:05:01;0.67;;;0.40;;
11344;SDS011;5727;42.600;23.028;2023-04-15T14:07:29;0.33;;;0.33;;
11344;SDS011;5727;42.600;23.028;2023-04-15T14:09:55;0.57;;;0.30;;
11344;SDS011;5727;42.600;23.028;2023-04-15T14:12:22;0.93;;;0.47;;
11344;SDS011;5727;42.600;23.028;2023-04-15T14:14:50;0.70;;;0.40;;
11344;SDS011;5727;42.600;23.028;2023-04-15T14:17:17;0.77;;;0.30;;
11344;SDS011;5727;42.600;23.028;2023-04-15T14:19:44;2.40;;;0.40;;
11344;SDS011;5727;42.600;23.028;2023-04-15T14:22:11;1.73;;;0.40;;
11344;SDS011;5727;42.600;23.028;2023-04-15T14:24:37;0.83;;;0.37;;
11344;SDS011;5727;42.600;23.028;2023-04-15T14:27:04;1.23;;;0.40;;
11344;SDS011;5727;42.600;23.028;2023-04-15T14:29:32;1.43;;;0.40;;
11344;SDS011;5727;42.600;23.028;2023-04-15T14:32:01;0.70;;;0.40;;
11344;SDS011;5727;42.600;23.028;2023-04-15T14:34:27;1.13;;;0.40;;
11344;SDS011;5727;42.600;23.028;2023-04-15T14:36:54;0.93;;;0.40;;
11344;SDS011;5727;42.600;23.028;2023-04-15T14:39:21;2.33;;;0.47;;
11344;SDS011;5727;42.600;23.028;2023-04-15T14:41:48;5.70;;;0.40;;
11344;SDS011;5727;42.600;23.028;2023-04-15T14:44:15;1.50;;;0.50;;
11344;SDS011;5727;42.600;23.028;2023-04-15T14:46:41;2.80;;;0.50;;
11344;SDS011;5727;42.600;23.028;2023-04-15T14:49:09;1.73;;;0.53;;
11344;SDS011;5727;42.600;23.028;2023-04-15T14:51:36;0.57;;;0.30;;
11344;SDS011;5727;42.600;23.028;2023-04-15T14:54:03;2.33;;;0.40;;